CheckWX is a tool to help pilots better visualize weather data.  It is not intended as a substitute for an official pre-flight weather briefing.

04:40:35 UTC

KBUR TAF
Bob Hope Airport
Burbank, California, USA
KBUR 222335Z 2300/2324 21009KT P6SM SCT020 FM230200 VRB03KT P6SM SKC FM230900 VRB03KT P6SM BKN015 FM231500 VRB03KT P6SM BKN025 FM231900 18008KT P6SM BKN050

Mar-23@
00:00 UTC

Mar-23 @ 00:00 UTC

Mar-23@
02:00 UTC

Mar-23 @ 02:00 UTC

KBUR 222335Z 2300/2324 21009KT P6SM SCT020

Expired

Wind
  • 210° at 9 KTS
Cloud Levels
  • Scattered at 2,000' AGL

Mar-23@
02:00 UTC

Mar-23 @ 02:00 UTC

Mar-23@
09:00 UTC

Mar-23 @ 09:00 UTC

FM230200 VRB03KT P6SM SKC

From

From Standard forecast or significant change

Wind
  • Variable at 3 KTS
Cloud Levels
  • Clear skies

Mar-23@
09:00 UTC

Mar-23 @ 09:00 UTC

Mar-23@
15:00 UTC

Mar-23 @ 15:00 UTC

FM230900 VRB03KT P6SM BKN015

From

From Standard forecast or significant change

Wind
  • Variable at 3 KTS
Cloud Levels
  • Broken at 1,500' AGL

Mar-23@
15:00 UTC

Mar-23 @ 15:00 UTC

Mar-23@
19:00 UTC

Mar-23 @ 19:00 UTC

FM231500 VRB03KT P6SM BKN025

From

From Standard forecast or significant change

Wind
  • Variable at 3 KTS
Cloud Levels
  • Broken at 2,500' AGL

Mar-23@
19:00 UTC

Mar-23 @ 19:00 UTC

Mar-24@
00:00 UTC

Mar-24 @ 00:00 UTC

FM231900 18008KT P6SM BKN050

From

From Standard forecast or significant change

Wind
  • 180° at 8 KTS
Cloud Levels
  • Broken at 5,000' AGL